Locatie 51° 56′ 37″.87 NB – 05° 58’47”.70 OL

Webcam1-NNO Meer informatie Webcam1-NNO


Webcam2-ZZO Meer informatie Webcam2-ZZO


Regen radar Meer informatie rain snow radar


Bezoek ook deze websites:

Template documentatie
en downloads

Weer Sluispark Leuven

Allesoversterrenkunde.nl

Luchtkwaliteit Beekenoord



METAR rapporten vliegvelden

Warning: A non-numeric value encountered in /mnt/web409/a1/60/54316460/htdocs/weerstation/weather28/metar/metarDisplay.php on line 166 Warning: A non-numeric value encountered in /mnt/web409/a1/60/54316460/htdocs/weerstation/weather28/metar/metarDisplay.php on line 166 Warning: A non-numeric value encountered in /mnt/web409/a1/60/54316460/htdocs/weerstation/weather28/metar/metarDisplay.php on line 166 Warning: A non-numeric value encountered in /mnt/web409/a1/60/54316460/htdocs/weerstation/weather28/metar/metarDisplay.php on line 166 Warning: A non-numeric value encountered in /mnt/web409/a1/60/54316460/htdocs/weerstation/weather28/metar/metarDisplay.php on line 166
   
EHVK - Volkel Rnlafb, Netherlands
Afstand tot: ZW 18 km
Gewijzigd: 15-10-2021 22:55
Helder  
Helder  
   Wind: ZW 3.7 km/h
Wind: ZW 3.7 km/h
Temperatuur: 4°C
Dauwpunt: 4°C
Vochtigheid: 100%
Barometer: 1021 hPa
Bewolking: Helder
Zicht: meer dan 10 km
Bewolking: Helder
EHVK 152055Z AUTO 23002KT 9999 NCD 04/04 Q1021 BLU
EDLV - Niederrhein, Germany
Afstand tot: ZO 25 km
Gewijzigd: 15-10-2021 22:50
Helder  
Helder  
   Wind: Kalm
Wind: Kalm
Temperatuur: 6°C
Dauwpunt: 4°C
Vochtigheid: 87%
Barometer: 1021 hPa
Zicht: meer dan 10 km
Bewolking: Helder
EDLV 152050Z 00000KT CAVOK 06/04 Q1021
EHDL - Deelen Rnlafb, Netherlands
Afstand tot: N 35 km
Gewijzigd: 15-10-2021 22:55
Helder  
Helder  
   Wind: ZO 1.9 km/h
Wind: ZO 1.9 km/h
Temperatuur: 3°C
Dauwpunt: 3°C
Vochtigheid: 100%
Barometer: 1021 hPa
Bewolking: Helder
Zicht: meer dan 10 km
Bewolking: Helder
EHDL 152055Z AUTO 14001KT 9999 NCD 03/03 Q1021 BLU
EHEH - Eindhoven Rnlafb, Netherlands
Afstand tot: ZW 48 km
Gewijzigd: 15-10-2021 22:55
Helder  
Helder  
   Wind: ZW 3.7 km/h
Wind: ZW 3.7 km/h
Temperatuur: 5°C
Dauwpunt: 5°C
Vochtigheid: 100%
Barometer: 1022 hPa
Bewolking: Helder
Zicht: meer dan 10 km
Bewolking: Helder
EHEH 152055Z AUTO 23002KT 9999 NCD 05/05 Q1022 BLU BECMG 3500 MIFG BR TEMPO 1500
EHGR - Gilze-Rijen Rnla, Netherlands
Afstand tot: WZW 70 km
Gewijzigd: 15-10-2021 22:55
Helder  
Helder  
   Wind: ZZW 1.9 km/h
Wind: ZZW 1.9 km/h
Temperatuur: 4°C
Dauwpunt: 3°C
Vochtigheid: 93%
Barometer: 1022 hPa
Bewolking: Helder
Zicht: meer dan 10 km
Bewolking: Helder
EHGR 152055Z AUTO 20001KT 9999 NCD 04/03 Q1022 BLU
EBBL - Kleine-Brogel(Ba, Belgium
Afstand tot: ZZW 71 km
Gewijzigd: 15-10-2021 22:55
Nevel, Gedeeltelijk bewolkt  
Nevel, Gedeeltelijk bewolkt  
   Wind: varieert 1.9 km/h
Wind: varieert 1.9 km/h
Temperatuur: 6°C
Dauwpunt: 6°C
Vochtigheid: 100%
Barometer: 1022 hPa
Bewolking: Gedeeltelijk bewolkt
Zicht: 0 km
Bewolking: Gedeeltelijk bewolkt 5700 ft
EBBL 152055Z AUTO VRB01KT 0250 BR SCT057/// 06/06 Q1022 RED

Script ontwikkeld door  Saratoga-weather.org Aangepast voor de template door  Weerstation Leuven

U vindt ons ook hier:

Het Weer Aktueel

UK Metoffice

WeatherCloud

Weather Underground

AWEKAS

Citizen Weather Observer Program (CWOP)

HAMweather, WeatherForYou, PWS Weather

Apparatuur in gebruik:

Weerstation
Davis VP2

Weercomputer
Meteobridge Pro

Webleverancier
Strato

Davis VP2

Meteobridge Pro

Strato